createdAt,value
2018-06-11T00:03:33.437Z,15.80
2018-06-11T00:07:37.731Z,15.90
2018-06-11T00:11:42.081Z,15.90
2018-06-11T00:23:53.950Z,15.70
2018-06-11T00:27:58.213Z,15.70
2018-06-11T00:32:02.524Z,15.70
2018-06-11T00:36:06.761Z,15.70
2018-06-11T00:40:10.977Z,15.70
2018-06-11T00:44:15.218Z,15.60
2018-06-11T00:52:23.648Z,15.50
2018-06-11T00:56:27.849Z,15.40
2018-06-11T01:00:32.339Z,15.30
2018-06-11T01:04:36.598Z,15.30
2018-06-11T01:08:40.881Z,15.20
2018-06-11T01:12:45.141Z,15.30
2018-06-11T01:20:53.243Z,15.20
2018-06-11T01:24:57.734Z,15.30
2018-06-11T01:29:01.953Z,15.30
2018-06-11T01:37:10.019Z,15.20
2018-06-11T01:41:14.240Z,15.10
2018-06-11T01:45:18.541Z,15.10
2018-06-11T01:49:22.785Z,15.00
2018-06-11T01:53:27.143Z,15.10
2018-06-11T01:57:31.418Z,15.10
2018-06-11T02:01:36.727Z,15.10
2018-06-11T02:09:44.782Z,14.90
2018-06-11T02:13:48.988Z,14.90
2018-06-11T02:17:53.350Z,14.90
2018-06-11T02:21:57.662Z,14.80
2018-06-11T02:26:01.998Z,14.80
2018-06-11T02:42:17.512Z,14.70
2018-06-11T02:46:21.887Z,14.80
2018-06-11T02:50:26.129Z,14.90
2018-06-11T02:54:30.439Z,14.80
2018-06-11T02:58:34.729Z,14.70
2018-06-11T03:02:39.072Z,14.70
2018-06-11T03:06:43.302Z,14.80
2018-06-11T03:10:47.626Z,14.70
2018-06-11T03:14:51.853Z,14.70
2018-06-11T03:18:56.632Z,14.70
2018-06-11T03:23:00.833Z,14.70
2018-06-11T03:27:05.160Z,14.80
2018-06-11T03:31:09.379Z,14.80
2018-06-11T03:39:17.579Z,15.10
2018-06-11T03:43:21.844Z,15.20
2018-06-11T03:47:26.270Z,15.20
2018-06-11T03:51:30.492Z,15.30
2018-06-11T03:55:34.779Z,15.40
2018-06-11T03:59:39.080Z,15.40
2018-06-11T04:03:44.462Z,15.60
2018-06-11T04:07:48.643Z,15.70
2018-06-11T04:11:53.074Z,15.80
2018-06-11T04:15:57.293Z,15.90
2018-06-11T04:20:01.522Z,16.00
2018-06-11T04:24:06.202Z,16.00
2018-06-11T04:28:10.671Z,16.20
2018-06-11T04:32:15.042Z,16.30
2018-06-11T04:36:19.281Z,16.40
2018-06-11T04:40:23.694Z,16.40
2018-06-11T04:44:27.991Z,16.50
2018-06-11T04:48:32.387Z,16.60
2018-06-11T04:52:36.940Z,16.80
2018-06-11T05:00:45.165Z,17.10
2018-06-11T05:04:49.665Z,17.40
2018-06-11T05:08:54.015Z,18.00
2018-06-11T05:12:58.525Z,18.50
2018-06-11T05:17:03.106Z,18.80
2018-06-11T05:21:07.484Z,19.00
2018-06-11T05:25:11.913Z,19.10
2018-06-11T05:29:16.230Z,18.90
2018-06-11T05:33:20.608Z,19.00
2018-06-11T05:37:24.839Z,19.00
2018-06-11T05:41:29.121Z,19.20
2018-06-11T05:45:33.517Z,19.20
2018-06-11T05:49:37.740Z,19.30
2018-06-11T05:53:42.235Z,19.70
2018-06-11T05:57:46.482Z,19.90
2018-06-11T06:01:50.756Z,20.30
2018-06-11T06:05:55.016Z,20.60
2018-06-11T06:10:00.411Z,21.00
2018-06-11T06:14:04.769Z,21.00
2018-06-11T06:18:09.003Z,21.20
2018-06-11T06:22:13.234Z,21.30
2018-06-11T06:26:49.574Z,21.40
2018-06-11T06:30:53.771Z,21.60
2018-06-11T06:34:58.362Z,21.60
2018-06-11T06:39:02.739Z,21.80
2018-06-11T06:43:07.096Z,21.90
2018-06-11T06:47:11.410Z,22.00
2018-06-11T06:51:15.736Z,22.00
2018-06-11T06:55:20.008Z,21.90
2018-06-11T06:59:24.447Z,21.90
2018-06-11T07:03:28.681Z,22.00
2018-06-11T07:07:32.956Z,22.20
2018-06-11T07:11:37.319Z,22.30
2018-06-11T07:15:41.655Z,22.30
2018-06-11T07:19:45.952Z,22.30
2018-06-11T07:23:50.282Z,22.40
2018-06-11T07:27:54.536Z,22.70
2018-06-11T07:31:58.773Z,22.80
2018-06-11T07:36:03.112Z,22.80
2018-06-11T07:40:07.428Z,23.10
2018-06-11T07:44:11.751Z,23.30
2018-06-11T07:48:15.973Z,23.50
2018-06-11T07:52:20.224Z,23.80
2018-06-11T07:56:24.533Z,24.20
2018-06-11T08:00:28.815Z,24.50
2018-06-11T08:04:33.160Z,24.70
2018-06-11T08:08:37.633Z,24.90
2018-06-11T08:12:41.864Z,24.90
2018-06-11T08:16:46.251Z,25.30
2018-06-11T08:20:50.548Z,25.20
2018-06-11T08:24:54.809Z,25.20
2018-06-11T08:28:59.024Z,25.00
2018-06-11T08:33:03.240Z,25.20
2018-06-11T08:37:07.660Z,25.50
2018-06-11T08:41:11.918Z,25.90
2018-06-11T08:45:16.154Z,26.30
2018-06-11T08:49:20.413Z,26.70
2018-06-11T08:53:25.855Z,27.00
2018-06-11T08:57:30.064Z,27.90
2018-06-11T09:01:34.425Z,28.60
2018-06-11T09:05:38.635Z,28.40
2018-06-11T09:09:42.978Z,29.90
2018-06-11T09:13:47.260Z,30.30
2018-06-11T09:17:53.554Z,30.20
2018-06-11T09:21:57.844Z,31.30
2018-06-11T09:26:02.409Z,32.50
2018-06-11T09:30:07.206Z,33.10
2018-06-11T09:34:11.468Z,31.90
2018-06-11T09:38:15.836Z,31.40
2018-06-11T09:42:20.275Z,32.30
2018-06-11T09:46:24.538Z,32.20
2018-06-11T09:50:28.883Z,31.20
2018-06-11T09:54:33.135Z,31.90
2018-06-11T09:58:38.526Z,32.10
2018-06-11T10:02:42.731Z,31.10
2018-06-11T10:06:47.088Z,32.00
2018-06-11T10:10:51.529Z,31.70
2018-06-11T10:14:55.912Z,32.50
2018-06-11T10:19:00.208Z,32.20
2018-06-11T10:23:04.468Z,31.50
2018-06-11T10:27:08.792Z,32.20
2018-06-11T10:31:13.390Z,31.30
2018-06-11T10:35:17.603Z,31.90
2018-06-11T10:39:21.908Z,31.60
2018-06-11T10:43:26.131Z,31.90
2018-06-11T10:47:31.397Z,32.40
2018-06-11T10:51:36.209Z,32.80
2018-06-11T10:55:40.795Z,33.30
2018-06-11T10:59:45.389Z,34.00
2018-06-11T11:03:49.717Z,33.80
2018-06-11T11:11:57.825Z,33.20
2018-06-11T11:16:02.089Z,33.70
2018-06-11T11:20:07.284Z,34.30
2018-06-11T11:24:11.595Z,33.80
2018-06-11T11:28:15.826Z,34.30
2018-06-11T11:32:20.153Z,34.10
2018-06-11T11:36:24.545Z,34.60
2018-06-11T11:40:28.846Z,35.20
2018-06-11T11:44:33.197Z,35.40
2018-06-11T11:48:37.413Z,35.30
2018-06-11T11:52:41.684Z,34.10
2018-06-11T11:57:05.331Z,34.30
2018-06-11T12:01:09.564Z,36.10
2018-06-11T12:05:13.776Z,36.40
2018-06-11T12:09:18.408Z,35.60
2018-06-11T12:13:22.686Z,35.90
2018-06-11T12:17:26.963Z,36.30
2018-06-11T12:21:31.427Z,36.00
2018-06-11T12:25:35.757Z,37.00
2018-06-11T12:29:40.426Z,36.00
2018-06-11T12:33:44.961Z,36.60
2018-06-11T12:37:49.177Z,38.80
2018-06-11T12:41:53.403Z,37.90
2018-06-11T12:45:57.623Z,38.60
2018-06-11T12:50:01.896Z,38.10
2018-06-11T12:54:06.269Z,37.60
2018-06-11T12:58:10.481Z,36.60
2018-06-11T13:02:14.870Z,34.90
2018-06-11T13:06:19.083Z,35.90
2018-06-11T13:10:23.356Z,36.70
2018-06-11T13:14:27.684Z,37.50
2018-06-11T13:18:32.654Z,37.90
2018-06-11T13:22:37.014Z,38.90
2018-06-11T13:26:41.517Z,38.20
2018-06-11T13:30:45.802Z,37.70
2018-06-11T13:34:50.157Z,39.10
2018-06-11T13:38:54.357Z,38.80
2018-06-11T13:42:58.680Z,39.30
2018-06-11T13:47:03.111Z,39.50
2018-06-11T13:51:07.398Z,38.70
2018-06-11T13:59:15.439Z,39.00
2018-06-11T14:03:19.680Z,38.50
2018-06-11T14:07:24.010Z,38.70
2018-06-11T14:11:29.113Z,38.40
2018-06-11T14:15:33.366Z,37.60
2018-06-11T14:19:37.777Z,36.00
2018-06-11T14:23:42.127Z,35.60
2018-06-11T14:27:47.872Z,35.30
2018-06-11T14:31:52.092Z,35.20
2018-06-11T14:35:56.402Z,34.40
2018-06-11T14:40:00.747Z,34.00
2018-06-11T14:44:05.080Z,33.90
2018-06-11T14:48:09.510Z,34.70
2018-06-11T14:52:13.738Z,34.60
2018-06-11T14:56:18.640Z,34.80
2018-06-11T15:00:22.886Z,34.50
2018-06-11T15:04:27.374Z,34.90
2018-06-11T15:08:31.674Z,35.00
2018-06-11T15:12:36.004Z,34.00
2018-06-11T15:16:40.272Z,33.40
2018-06-11T15:20:44.498Z,34.20
2018-06-11T15:24:48.906Z,33.40
2018-06-11T15:28:53.215Z,33.50
2018-06-11T15:32:57.898Z,33.40
2018-06-11T15:37:02.118Z,33.40
2018-06-11T15:41:06.736Z,33.20
2018-06-11T15:45:10.954Z,32.60
2018-06-11T15:49:15.298Z,33.40
2018-06-11T15:57:24.285Z,32.40
2018-06-11T16:01:28.541Z,32.40
2018-06-11T16:05:35.740Z,33.60
2018-06-11T16:09:40.128Z,34.30
2018-06-11T16:13:44.692Z,34.50
2018-06-11T16:17:49.201Z,34.30
2018-06-11T16:21:53.427Z,33.00
2018-06-11T16:25:57.812Z,32.00
2018-06-11T16:30:03.316Z,31.30
2018-06-11T16:34:07.559Z,30.30
2018-06-11T16:38:12.591Z,29.80
2018-06-11T16:42:17.192Z,29.50
2018-06-11T16:46:22.937Z,29.20
2018-06-11T16:50:27.146Z,28.60
2018-06-11T16:54:31.416Z,28.10
2018-06-11T16:58:35.772Z,27.80
2018-06-11T17:02:40.008Z,27.60
2018-06-11T17:06:44.307Z,27.10
2018-06-11T17:10:48.622Z,27.10
2018-06-11T17:14:53.220Z,27.00
2018-06-11T17:18:57.461Z,26.90
2018-06-11T17:23:01.731Z,27.10
2018-06-11T17:27:06.060Z,27.00
2018-06-11T17:31:10.397Z,26.90
2018-06-11T17:35:14.970Z,26.90
2018-06-11T17:39:19.183Z,27.00
2018-06-11T17:43:23.425Z,27.10
2018-06-11T17:47:27.843Z,27.00
2018-06-11T17:51:32.068Z,26.60
2018-06-11T17:55:36.726Z,26.40
2018-06-11T17:59:41.932Z,26.10
2018-06-11T18:03:46.479Z,25.90
2018-06-11T18:07:50.694Z,25.60
2018-06-11T18:11:54.967Z,25.40
2018-06-11T18:16:00.186Z,25.10
2018-06-11T18:20:04.758Z,24.80
2018-06-11T18:24:09.038Z,24.40
2018-06-11T18:28:13.453Z,24.20
2018-06-11T18:32:17.714Z,24.00
2018-06-11T18:36:21.949Z,23.80
2018-06-11T18:40:26.177Z,23.60
2018-06-11T18:44:30.443Z,23.50
2018-06-11T18:48:34.773Z,23.30
2018-06-11T18:52:39.303Z,23.30
2018-06-11T18:56:43.566Z,23.00
2018-06-11T19:00:47.817Z,22.70
2018-06-11T19:04:52.190Z,22.60
2018-06-11T19:08:56.404Z,22.50
2018-06-11T19:13:00.696Z,22.40
2018-06-11T19:17:05.030Z,22.30
2018-06-11T19:21:09.405Z,22.20
2018-06-11T19:25:22.273Z,22.10
2018-06-11T19:29:26.995Z,22.10
2018-06-11T19:33:31.522Z,21.90
2018-06-11T19:37:36.497Z,21.80
2018-06-11T19:41:40.935Z,21.60
2018-06-11T19:45:45.545Z,21.60
2018-06-11T19:49:50.572Z,21.40
2018-06-11T19:53:55.236Z,21.30
2018-06-11T19:58:00.222Z,21.30
2018-06-11T20:02:04.521Z,21.20
2018-06-11T20:06:08.800Z,21.20
2018-06-11T20:10:13.188Z,21.10
2018-06-11T20:14:17.429Z,21.00
2018-06-11T20:18:22.047Z,21.00
2018-06-11T20:22:26.248Z,21.00
2018-06-11T20:26:30.564Z,20.90
2018-06-11T20:30:34.799Z,20.90
2018-06-11T20:34:39.226Z,20.80
2018-06-11T20:38:43.479Z,20.70
2018-06-11T20:42:48.013Z,20.90
2018-06-11T20:46:52.284Z,20.90
2018-06-11T20:50:56.716Z,20.80
2018-06-11T20:55:01.135Z,20.80
2018-06-11T20:59:05.392Z,20.70
2018-06-11T21:03:09.855Z,20.60
2018-06-11T21:07:14.139Z,20.50
2018-06-11T21:11:18.374Z,20.40
2018-06-11T21:15:22.639Z,20.40
2018-06-11T21:19:26.888Z,20.20
2018-06-11T21:23:31.282Z,20.10
2018-06-11T21:27:35.520Z,20.10
2018-06-11T21:31:39.909Z,20.00
2018-06-11T21:35:44.134Z,20.00
2018-06-11T21:39:48.585Z,19.90
2018-06-11T21:43:53.637Z,19.90
2018-06-11T21:47:58.035Z,19.90
2018-06-11T21:52:02.301Z,19.80
2018-06-11T21:56:06.659Z,19.80
2018-06-11T22:00:10.995Z,19.70
2018-06-11T22:04:15.389Z,19.80
2018-06-11T22:08:19.678Z,19.70
2018-06-11T22:12:24.057Z,19.70
2018-06-11T22:16:28.315Z,19.50
2018-06-11T22:20:32.844Z,19.50
2018-06-11T22:24:37.150Z,19.40
2018-06-11T23:16:10.126Z,19.30
2018-06-11T23:20:14.373Z,18.80
2018-06-11T23:24:18.617Z,18.80
2018-06-11T23:28:23.007Z,18.90
2018-06-11T23:32:27.227Z,18.70
2018-06-11T23:36:31.658Z,18.70
2018-06-11T23:40:35.925Z,18.50
